createdAt,value
2022-08-07T00:00:26.411Z,4.90
2022-08-07T00:02:53.999Z,5.60
2022-08-07T00:05:23.596Z,6.00
2022-08-07T00:07:58.274Z,6.40
2022-08-07T00:10:30.411Z,7.10
2022-08-07T00:13:02.458Z,6.70
2022-08-07T00:15:46.409Z,6.00
2022-08-07T00:18:24.556Z,4.10
2022-08-07T00:21:01.718Z,4.80
2022-08-07T00:23:31.379Z,4.90
2022-08-07T00:26:13.014Z,4.40
2022-08-07T00:28:55.363Z,5.10
2022-08-07T00:31:23.093Z,4.30
2022-08-07T00:33:50.756Z,4.40
2022-08-07T00:36:19.133Z,4.30
2022-08-07T00:38:46.590Z,5.30
2022-08-07T00:41:26.028Z,4.80
2022-08-07T00:43:59.418Z,4.80
2022-08-07T00:46:30.996Z,3.40
2022-08-07T00:49:03.211Z,3.50
2022-08-07T00:51:57.097Z,3.60
2022-08-07T00:54:19.861Z,4.20
2022-08-07T00:56:49.750Z,4.40
2022-08-07T00:59:20.255Z,4.10
2022-08-07T01:02:04.252Z,4.40
2022-08-07T01:04:43.255Z,4.30
2022-08-07T01:07:12.663Z,4.00
2022-08-07T01:10:05.669Z,4.70
2022-08-07T01:12:30.892Z,5.10
2022-08-07T01:15:01.406Z,3.50
2022-08-07T01:17:33.033Z,4.60
2022-08-07T01:20:16.881Z,5.40
2022-08-07T01:22:54.159Z,6.90
2022-08-07T01:25:55.880Z,8.00
2022-08-07T01:28:23.522Z,6.70
2022-08-07T01:30:55.485Z,6.90
2022-08-07T01:33:25.252Z,3.50
2022-08-07T01:36:16.734Z,4.70
2022-08-07T01:38:45.974Z,4.50
2022-08-07T01:41:26.110Z,4.60
2022-08-07T01:43:57.168Z,4.40
2022-08-07T01:46:26.744Z,4.30
2022-08-07T01:48:55.051Z,4.50
2022-08-07T01:52:04.055Z,5.30
2022-08-07T01:54:32.650Z,6.70
2022-08-07T01:57:20.406Z,4.40
2022-08-07T02:00:00.656Z,6.00
2022-08-07T02:03:18.504Z,6.40
2022-08-07T02:05:47.555Z,7.40
2022-08-07T02:08:23.779Z,7.60
2022-08-07T02:10:55.462Z,8.50
2022-08-07T02:13:59.839Z,5.20
2022-08-07T02:16:29.951Z,7.10
2022-08-07T02:19:05.685Z,7.50
2022-08-07T02:21:56.509Z,7.80
2022-08-07T02:24:25.563Z,8.70
2022-08-07T02:27:01.635Z,8.70
2022-08-07T02:29:31.882Z,5.30
2022-08-07T02:32:01.943Z,7.10
2022-08-07T02:34:33.013Z,7.60
2022-08-07T02:37:08.355Z,8.10
2022-08-07T02:39:42.964Z,8.90
2022-08-07T02:42:14.649Z,8.50
2022-08-07T02:44:48.196Z,6.00
2022-08-07T02:47:19.717Z,7.70
2022-08-07T02:49:56.109Z,8.10
2022-08-07T02:52:47.914Z,8.70
2022-08-07T02:55:28.413Z,8.80
2022-08-07T02:58:12.618Z,8.70
2022-08-07T03:00:46.717Z,5.30
2022-08-07T03:03:21.065Z,6.90
2022-08-07T03:05:56.599Z,7.10
2022-08-07T03:08:26.782Z,7.80
2022-08-07T03:10:57.622Z,8.70
2022-08-07T03:13:29.616Z,8.50
2022-08-07T03:16:07.526Z,7.80
2022-08-07T03:18:36.192Z,8.10
2022-08-07T03:21:08.691Z,5.00
2022-08-07T03:24:19.990Z,6.00
2022-08-07T03:26:33.679Z,6.10
2022-08-07T03:29:11.110Z,6.70
2022-08-07T03:31:46.213Z,6.70
2022-08-07T03:34:22.352Z,7.30
2022-08-07T03:36:54.245Z,7.20
2022-08-07T03:39:56.616Z,7.20
2022-08-07T03:42:12.354Z,8.00
2022-08-07T03:44:40.782Z,8.00
2022-08-07T03:47:14.380Z,8.10
2022-08-07T03:49:48.000Z,8.10
2022-08-07T03:52:27.382Z,8.00
2022-08-07T03:55:07.486Z,8.20
2022-08-07T03:58:34.082Z,8.00
2022-08-07T04:00:33.613Z,8.00
2022-08-07T04:03:04.282Z,8.40
2022-08-07T04:05:39.379Z,7.90
2022-08-07T04:08:18.525Z,8.00
2022-08-07T04:10:54.528Z,7.80
2022-08-07T04:14:10.311Z,8.10
2022-08-07T04:16:31.220Z,7.90
2022-08-07T04:19:12.352Z,6.20
2022-08-07T04:21:48.023Z,5.50
2022-08-07T04:24:33.898Z,6.60
2022-08-07T04:27:15.306Z,7.50
2022-08-07T04:30:02.202Z,7.30
2022-08-07T04:32:48.479Z,8.30
2022-08-07T04:35:26.800Z,7.50
2022-08-07T04:38:06.436Z,7.60
2022-08-07T04:40:51.194Z,7.70
2022-08-07T04:44:11.806Z,7.90
2022-08-07T04:47:04.776Z,7.30
2022-08-07T04:50:12.148Z,7.70
2022-08-07T04:52:54.246Z,7.70
2022-08-07T04:58:12.323Z,7.60
2022-08-07T05:00:07.864Z,7.40
2022-08-07T05:02:35.782Z,6.70
2022-08-07T05:05:52.685Z,7.00
2022-08-07T05:09:00.126Z,7.00
2022-08-07T05:11:57.057Z,7.70
2022-08-07T05:14:52.167Z,6.70
2022-08-07T05:17:52.503Z,7.00
2022-08-07T05:20:10.083Z,6.10
2022-08-07T05:25:11.770Z,5.70
2022-08-07T05:28:16.140Z,5.60
2022-08-07T05:30:42.852Z,5.50
2022-08-07T05:33:13.154Z,5.50
2022-08-07T05:35:43.826Z,5.20
2022-08-07T05:38:13.193Z,5.10
2022-08-07T05:41:02.168Z,5.20
2022-08-07T05:43:43.444Z,5.30
2022-08-07T05:46:29.406Z,5.40
2022-08-07T05:48:59.476Z,5.60
2022-08-07T05:51:31.417Z,5.20
2022-08-07T05:54:13.263Z,5.50
2022-08-07T05:56:51.274Z,5.60
2022-08-07T05:59:21.352Z,5.40
2022-08-07T06:01:54.792Z,5.40
2022-08-07T06:04:26.332Z,5.50
2022-08-07T06:07:03.978Z,5.50
2022-08-07T06:09:56.604Z,4.70
2022-08-07T06:12:31.687Z,4.80
2022-08-07T06:15:05.750Z,4.60
2022-08-07T06:17:38.035Z,5.50
2022-08-07T06:20:12.749Z,5.40
2022-08-07T06:23:02.326Z,5.10
2022-08-07T06:25:54.859Z,5.10
2022-08-07T06:28:27.193Z,5.10
2022-08-07T06:30:55.978Z,4.90
2022-08-07T06:33:24.823Z,4.90
2022-08-07T06:36:12.001Z,5.20
2022-08-07T06:42:01.951Z,4.80
2022-08-07T06:44:41.282Z,4.70
2022-08-07T06:47:10.308Z,5.30
2022-08-07T06:49:51.920Z,5.20
2022-08-07T06:52:38.163Z,4.60
2022-08-07T06:55:33.949Z,4.40
2022-08-07T06:58:11.517Z,4.40
2022-08-07T07:00:47.021Z,4.70
2022-08-07T07:03:26.351Z,5.20
2022-08-07T07:06:11.531Z,5.40
2022-08-07T07:08:39.894Z,5.30
2022-08-07T07:12:08.868Z,4.80
2022-08-07T07:14:03.801Z,5.00
2022-08-07T07:16:45.445Z,5.30
2022-08-07T07:19:55.923Z,5.50
2022-08-07T07:22:36.560Z,4.80
2022-08-07T07:25:13.975Z,4.90
2022-08-07T07:27:56.083Z,4.90
2022-08-07T07:30:38.616Z,4.90
2022-08-07T07:33:12.028Z,5.00
2022-08-07T07:35:50.648Z,5.20
2022-08-07T07:38:31.663Z,5.30
2022-08-07T07:41:08.614Z,4.90
2022-08-07T07:44:14.732Z,4.80
2022-08-07T07:46:39.931Z,4.50
2022-08-07T07:50:32.477Z,4.80
2022-08-07T07:52:10.401Z,4.60
2022-08-07T07:54:40.013Z,4.80
2022-08-07T07:57:43.598Z,4.40
2022-08-07T08:00:10.048Z,4.50
2022-08-07T08:03:01.135Z,4.50
2022-08-07T08:05:42.829Z,4.40
2022-08-07T08:08:35.708Z,4.30
2022-08-07T08:11:16.153Z,4.40
2022-08-07T08:16:40.746Z,4.40
2022-08-07T08:20:19.750Z,4.60
2022-08-07T08:22:33.002Z,4.80
2022-08-07T08:25:41.867Z,4.60
2022-08-07T08:28:17.026Z,4.50
2022-08-07T08:30:57.498Z,4.60
2022-08-07T08:33:33.094Z,4.80
2022-08-07T08:36:03.226Z,5.50
2022-08-07T08:38:50.857Z,5.40
2022-08-07T08:41:58.667Z,5.50
2022-08-07T08:44:49.464Z,5.30
2022-08-07T08:47:31.610Z,5.00
2022-08-07T08:50:35.378Z,5.40
2022-08-07T08:53:34.268Z,5.80
2022-08-07T08:56:16.965Z,5.60
2022-08-07T08:59:12.785Z,5.60
2022-08-07T09:02:08.756Z,5.50
2022-08-07T09:04:58.609Z,5.30
2022-08-07T09:07:28.835Z,5.60
2022-08-07T09:10:19.021Z,5.20
2022-08-07T09:13:03.721Z,5.00
2022-08-07T09:16:21.618Z,5.20
2022-08-07T09:18:41.743Z,5.40
2022-08-07T09:22:22.735Z,5.20
2022-08-07T09:25:33.868Z,6.00
2022-08-07T09:30:03.470Z,6.10
2022-08-07T09:31:08.680Z,5.70
2022-08-07T09:34:08.738Z,5.90
2022-08-07T09:37:00.110Z,6.20
2022-08-07T09:39:54.943Z,5.90
2022-08-07T09:42:29.303Z,6.30
2022-08-07T09:47:25.583Z,5.80
2022-08-07T09:48:50.121Z,5.40
2022-08-07T09:52:16.094Z,5.30
2022-08-07T09:54:44.146Z,6.00
2022-08-07T09:57:46.727Z,5.40
2022-08-07T10:00:29.935Z,5.50
2022-08-07T10:04:06.247Z,5.40
2022-08-07T10:06:32.084Z,5.60
2022-08-07T10:09:34.326Z,6.20
2022-08-07T10:12:31.154Z,6.10
2022-08-07T10:15:32.873Z,5.40
2022-08-07T10:18:17.571Z,5.90
2022-08-07T10:22:14.982Z,5.60
2022-08-07T10:24:18.637Z,4.90
2022-08-07T10:26:58.141Z,5.10
2022-08-07T10:29:45.786Z,5.00
2022-08-07T10:32:51.569Z,4.60
2022-08-07T10:35:53.508Z,5.10
2022-08-07T10:38:48.868Z,5.40
2022-08-07T10:41:51.894Z,5.80
2022-08-07T10:44:39.061Z,5.80
2022-08-07T10:48:11.403Z,6.10
2022-08-07T10:50:52.568Z,6.40
2022-08-07T10:53:44.069Z,6.10
2022-08-07T10:56:34.586Z,6.60
2022-08-07T10:59:41.304Z,6.30
2022-08-07T11:02:35.107Z,6.20
2022-08-07T11:05:35.691Z,7.60
2022-08-07T11:08:30.559Z,6.50
2022-08-07T11:11:06.526Z,6.10
2022-08-07T11:14:46.195Z,5.70
2022-08-07T11:16:37.278Z,5.50
2022-08-07T11:19:35.559Z,4.90
2022-08-07T11:22:18.808Z,4.40
2022-08-07T11:25:14.889Z,3.60
2022-08-07T11:28:01.269Z,3.50
2022-08-07T11:30:43.006Z,3.40
2022-08-07T11:33:15.094Z,3.00
2022-08-07T11:35:59.712Z,2.80
2022-08-07T11:38:56.460Z,2.90
2022-08-07T11:42:02.170Z,3.30
2022-08-07T11:44:28.456Z,4.50
2022-08-07T11:47:39.210Z,3.30
2022-08-07T11:50:57.911Z,3.40
2022-08-07T11:54:10.464Z,4.30
2022-08-07T11:56:59.872Z,4.90
2022-08-07T12:00:10.021Z,4.70
2022-08-07T12:02:56.165Z,4.70
2022-08-07T12:06:02.799Z,4.30
2022-08-07T12:09:05.584Z,4.00
2022-08-07T12:12:10.782Z,3.80
2022-08-07T12:14:39.232Z,4.20
2022-08-07T12:17:20.011Z,4.80
2022-08-07T12:20:04.716Z,4.90
2022-08-07T12:22:58.241Z,4.70
2022-08-07T12:26:06.139Z,3.30
2022-08-07T12:28:57.939Z,3.80
2022-08-07T12:31:53.304Z,4.00
2022-08-07T12:34:33.811Z,6.30
2022-08-07T12:37:08.336Z,7.40
2022-08-07T12:39:50.900Z,4.10
2022-08-07T12:42:27.880Z,4.10
2022-08-07T12:45:05.773Z,4.40
2022-08-07T12:48:51.822Z,2.70
2022-08-07T12:51:21.433Z,3.40
2022-08-07T12:54:37.305Z,3.10
2022-08-07T12:57:09.582Z,4.30
2022-08-07T12:59:55.475Z,4.50
2022-08-07T13:02:25.017Z,5.20
2022-08-07T13:06:02.707Z,4.80
2022-08-07T13:08:31.070Z,3.60
2022-08-07T13:11:20.133Z,3.80
2022-08-07T13:13:58.445Z,3.80
2022-08-07T13:17:06.248Z,4.20
2022-08-07T13:19:51.758Z,4.40
2022-08-07T13:22:32.523Z,4.50
2022-08-07T13:25:24.175Z,3.30
2022-08-07T13:28:11.390Z,3.80
2022-08-07T13:30:49.147Z,4.00
2022-08-07T13:34:33.577Z,4.50
2022-08-07T13:36:39.402Z,3.70
2022-08-07T13:39:49.225Z,4.10
2022-08-07T13:42:19.139Z,2.70
2022-08-07T13:45:11.732Z,2.80
2022-08-07T13:48:06.094Z,3.00
2022-08-07T13:50:34.240Z,3.20
2022-08-07T13:53:21.975Z,3.20
2022-08-07T13:55:54.586Z,3.60
2022-08-07T13:58:56.187Z,2.70
2022-08-07T14:01:26.551Z,3.10
2022-08-07T14:04:09.617Z,2.60
2022-08-07T14:06:40.826Z,2.50
2022-08-07T14:09:16.968Z,2.80
2022-08-07T14:12:10.309Z,2.70
2022-08-07T14:14:51.279Z,2.00
2022-08-07T14:18:13.617Z,2.40
2022-08-07T14:20:41.883Z,2.60
2022-08-07T14:23:17.951Z,2.80
2022-08-07T14:26:05.705Z,3.10
2022-08-07T14:28:57.124Z,3.20
2022-08-07T14:31:42.372Z,2.30
2022-08-07T14:34:20.185Z,3.00
2022-08-07T14:36:56.344Z,2.80
2022-08-07T14:40:17.213Z,2.50
2022-08-07T14:42:18.597Z,2.80
2022-08-07T14:44:59.753Z,2.90
2022-08-07T14:47:47.201Z,1.70
2022-08-07T14:50:19.824Z,2.90
2022-08-07T14:52:50.191Z,3.30
2022-08-07T14:55:18.830Z,3.20
2022-08-07T14:57:58.517Z,3.90
2022-08-07T15:00:31.240Z,3.20
2022-08-07T15:03:19.045Z,3.70
2022-08-07T15:05:54.174Z,1.90
2022-08-07T15:08:47.603Z,2.50
2022-08-07T15:11:50.805Z,2.70
2022-08-07T15:14:17.994Z,2.70
2022-08-07T15:16:54.735Z,3.00
2022-08-07T15:20:30.426Z,3.10
2022-08-07T15:22:29.080Z,3.20
2022-08-07T15:25:12.890Z,2.00
2022-08-07T15:28:32.339Z,2.10
2022-08-07T15:33:33.881Z,2.50
2022-08-07T15:36:05.713Z,2.80
2022-08-07T15:44:23.850Z,2.30
2022-08-07T15:47:03.652Z,2.40
2022-08-07T15:52:30.331Z,2.30
2022-08-07T15:55:03.386Z,2.50
2022-08-07T15:57:47.528Z,1.60
2022-08-07T16:00:31.696Z,1.90
2022-08-07T16:03:21.745Z,2.00
2022-08-07T16:05:59.195Z,2.40
2022-08-07T16:08:37.884Z,2.50
2022-08-07T16:11:26.281Z,2.30
2022-08-07T16:14:09.541Z,1.40
2022-08-07T16:16:56.987Z,2.00
2022-08-07T16:19:42.196Z,1.90
2022-08-07T16:22:54.900Z,2.30
2022-08-07T16:25:52.677Z,2.40
2022-08-07T16:29:18.540Z,2.50
2022-08-07T16:31:51.329Z,1.90
2022-08-07T16:34:45.265Z,2.20
2022-08-07T16:38:06.318Z,2.40
2022-08-07T16:41:54.288Z,2.70
2022-08-07T16:45:14.791Z,1.80
2022-08-07T16:47:51.287Z,2.50
2022-08-07T16:50:48.157Z,2.50
2022-08-07T16:54:01.252Z,2.70
2022-08-07T16:56:43.063Z,3.30
2022-08-07T16:59:46.167Z,1.50
2022-08-07T17:03:05.946Z,2.30
2022-08-07T17:06:28.651Z,2.60
2022-08-07T17:09:04.159Z,2.90
2022-08-07T17:12:04.705Z,2.90
2022-08-07T17:15:00.582Z,3.00
2022-08-07T17:17:49.546Z,2.00
2022-08-07T17:20:38.040Z,2.70
2022-08-07T17:23:12.839Z,2.40
2022-08-07T17:26:24.344Z,2.90
2022-08-07T17:28:58.471Z,3.10
2022-08-07T17:31:44.225Z,1.50
2022-08-07T17:35:08.872Z,2.30
2022-08-07T17:38:09.625Z,2.50
2022-08-07T17:40:34.373Z,2.30
2022-08-07T17:43:15.253Z,2.30
2022-08-07T17:45:55.778Z,1.70
2022-08-07T17:48:31.934Z,2.10
2022-08-07T17:51:01.700Z,2.00
2022-08-07T17:54:02.256Z,2.40
2022-08-07T17:56:29.884Z,2.50
2022-08-07T17:58:57.338Z,1.70
2022-08-07T18:01:46.505Z,2.40
2022-08-07T18:04:40.399Z,2.30
2022-08-07T18:07:24.465Z,2.40
2022-08-07T18:10:33.068Z,3.00
2022-08-07T18:13:16.949Z,2.60
2022-08-07T18:16:03.451Z,1.90
2022-08-07T18:21:12.638Z,2.00
2022-08-07T18:22:05.385Z,2.50
2022-08-07T18:24:41.291Z,2.20
2022-08-07T18:27:44.896Z,2.40
2022-08-07T18:30:32.785Z,1.60
2022-08-07T18:33:35.209Z,2.10
2022-08-07T18:36:32.714Z,1.90
2022-08-07T18:40:07.320Z,2.00
2022-08-07T18:42:17.194Z,1.80
2022-08-07T18:45:44.363Z,1.10
2022-08-07T18:48:02.507Z,1.50
2022-08-07T18:50:48.236Z,1.60
2022-08-07T18:53:21.921Z,1.70
2022-08-07T18:56:19.328Z,1.80
2022-08-07T18:59:47.085Z,1.20
2022-08-07T19:02:18.365Z,1.50
2022-08-07T19:05:15.454Z,1.40
2022-08-07T19:08:03.751Z,1.70
2022-08-07T19:10:49.832Z,1.70
2022-08-07T19:13:35.904Z,1.10
2022-08-07T19:16:42.939Z,1.40
2022-08-07T19:19:19.280Z,1.80
2022-08-07T19:22:11.170Z,1.80
2022-08-07T19:24:44.666Z,1.70
2022-08-07T19:28:57.868Z,1.10
2022-08-07T19:31:00.551Z,1.60
2022-08-07T19:33:10.152Z,1.60
2022-08-07T19:35:46.901Z,1.90
2022-08-07T19:38:17.663Z,2.00
2022-08-07T19:40:50.438Z,1.30
2022-08-07T19:43:48.938Z,1.50
2022-08-07T19:46:17.827Z,1.60
2022-08-07T19:48:56.399Z,1.80
2022-08-07T19:51:52.839Z,2.10
2022-08-07T19:58:01.619Z,1.30
2022-08-07T19:59:59.956Z,1.90
2022-08-07T20:02:39.198Z,2.10
2022-08-07T20:05:11.600Z,2.10
2022-08-07T20:07:46.509Z,2.30
2022-08-07T20:10:36.711Z,1.50
2022-08-07T20:13:27.111Z,2.00
2022-08-07T20:16:01.363Z,1.90
2022-08-07T20:18:33.373Z,2.20
2022-08-07T20:21:21.143Z,2.40
2022-08-07T20:23:57.819Z,1.80
2022-08-07T20:26:38.704Z,2.30
2022-08-07T20:29:47.200Z,2.30
2022-08-07T20:32:05.964Z,2.30
2022-08-07T20:34:50.817Z,2.30
2022-08-07T20:37:46.828Z,1.50
2022-08-07T20:40:32.985Z,2.10
2022-08-07T20:43:03.761Z,1.60
2022-08-07T20:46:27.149Z,1.70
2022-08-07T20:48:34.482Z,1.70
2022-08-07T20:51:09.505Z,1.20
2022-08-07T20:54:04.580Z,1.50
2022-08-07T20:56:32.313Z,2.10
2022-08-07T20:59:05.062Z,2.10
2022-08-07T21:01:45.851Z,2.10
2022-08-07T21:04:28.053Z,2.70
2022-08-07T21:07:04.306Z,1.30
2022-08-07T21:09:52.740Z,1.50
2022-08-07T21:12:31.896Z,2.00
2022-08-07T21:15:03.446Z,1.90
2022-08-07T21:20:29.688Z,2.10
2022-08-07T21:23:07.638Z,1.30
2022-08-07T21:26:05.769Z,1.90
2022-08-07T21:28:50.306Z,1.70
2022-08-07T21:31:50.140Z,2.20
2022-08-07T21:34:31.919Z,2.20
2022-08-07T21:37:02.017Z,1.40
2022-08-07T21:39:55.147Z,1.70
2022-08-07T21:42:56.256Z,1.70
2022-08-07T21:46:09.984Z,2.00
2022-08-07T21:48:42.349Z,2.00
2022-08-07T21:51:54.557Z,1.60
2022-08-07T21:54:58.081Z,1.60
2022-08-07T21:57:39.354Z,2.00
2022-08-07T22:00:23.246Z,2.10
2022-08-07T22:03:30.660Z,2.30
2022-08-07T22:06:06.554Z,1.50
2022-08-07T22:08:42.635Z,1.80
2022-08-07T22:11:11.483Z,2.00
2022-08-07T22:13:51.848Z,2.10
2022-08-07T22:16:56.591Z,2.20
2022-08-07T22:19:38.994Z,1.80
2022-08-07T22:22:28.669Z,1.40
2022-08-07T22:25:03.388Z,2.10
2022-08-07T22:27:34.028Z,2.10
2022-08-07T22:30:26.585Z,2.20
2022-08-07T22:33:09.319Z,2.30
2022-08-07T22:35:45.963Z,1.60
2022-08-07T22:38:24.065Z,2.20
2022-08-07T22:42:04.219Z,2.20
2022-08-07T22:44:24.804Z,2.30
2022-08-07T22:47:17.170Z,2.10
2022-08-07T22:49:54.521Z,1.90
2022-08-07T22:52:47.128Z,2.00
2022-08-07T22:55:43.640Z,1.90
2022-08-07T22:58:39.529Z,2.50
2022-08-07T23:01:50.018Z,2.30
2022-08-07T23:04:53.358Z,1.70
2022-08-07T23:07:46.608Z,2.20
2022-08-07T23:10:45.592Z,2.10
2022-08-07T23:13:49.191Z,2.10
2022-08-07T23:16:46.682Z,2.40
2022-08-07T23:20:19.508Z,1.40
2022-08-07T23:23:14.646Z,1.80
2022-08-07T23:26:18.760Z,2.00
2022-08-07T23:29:01.808Z,2.20
2022-08-07T23:34:18.597Z,2.10
2022-08-07T23:35:12.579Z,1.40
2022-08-07T23:38:04.101Z,2.20
2022-08-07T23:40:49.275Z,2.00
2022-08-07T23:43:52.754Z,2.50
2022-08-07T23:46:43.196Z,2.30
2022-08-07T23:49:50.669Z,1.50
2022-08-07T23:52:53.853Z,2.00
2022-08-07T23:55:53.448Z,2.10
2022-08-07T23:58:31.883Z,2.30
